Terminal Aerodrome Forecast
Issued by NWS Twin Cities, MN

Home | Current Version | Previous Version | Text Only | Print | Product List | Glossary Off
Versions: 1 2 3 4 5 6 7 8 9 10 11 12 13 14 15 16 17 18

000
FTUS43 KMPX 142300
TAFEAU
TAF
KEAU 142328Z 1500/1524 33014G20KT P6SM OVC060
     FM150100 34009KT P6SM BKN060
     FM150400 33005KT P6SM SKC
     FM152100 29006KT P6SM BKN200=

USA.gov is the U.S. government's official web portal to all federal, state and local government web resources and services.